Beckett Point, Washington
Current Conditions -  °F | °C
As of 7:56 AM on Sunday 25 Jan 2015 (Local Time) from KNUW Reporting Station
Broken Clouds Broken Clouds  
Wind Chill: 54°   Ceiling: 2500
Heat Index: 54°   Visibility: 10mi
Dew Point: 51°   Wind: 9mph
Humidity: 90%   Direction: 130°SE
Pressure: 30.18"   Gusts: NA
Location:  48.026°N, 122.859°W
Report Text: KNUW 251556Z 13008KT 10SM FEW007 BKN025 BKN100 12/11 A3018 RMK AO2 SLP222 T01220106 VISNO E $
Loading
Personal Weather Stations






























Interactive Weather Map New forecast layout! Learn more

10-Day Weather Forecast

Advertisements
Track Severe Weather on mobile